createdAt,value
2018-04-17T00:00:39.938Z,75.55
2018-04-17T00:03:05.615Z,75.59
2018-04-17T00:05:31.295Z,75.61
2018-04-17T00:07:57.182Z,75.73
2018-04-17T00:10:22.883Z,75.81
2018-04-17T00:12:48.607Z,75.83
2018-04-17T00:15:14.266Z,75.85
2018-04-17T00:17:39.977Z,75.70
2018-04-17T00:20:05.638Z,75.78
2018-04-17T00:22:31.355Z,75.90
2018-04-17T00:24:57.027Z,76.06
2018-04-17T00:27:22.707Z,76.10
2018-04-17T00:29:48.627Z,76.14
2018-04-17T00:32:14.498Z,76.20
2018-04-17T00:34:40.163Z,76.24
2018-04-17T00:37:05.972Z,76.32
2018-04-17T00:39:31.679Z,76.35
2018-04-17T00:41:57.374Z,76.29
2018-04-17T00:44:23.031Z,76.21
2018-04-17T00:46:48.720Z,76.23
2018-04-17T00:49:14.403Z,76.34
2018-04-17T00:51:40.253Z,76.36
2018-04-17T00:54:08.792Z,76.45
2018-04-17T00:56:34.462Z,76.54
2018-04-17T00:59:00.154Z,76.65
2018-04-17T01:01:25.812Z,76.63
2018-04-17T01:03:51.623Z,76.75
2018-04-17T01:06:17.294Z,76.79
2018-04-17T01:08:42.968Z,76.67
2018-04-17T01:11:08.666Z,76.92
2018-04-17T01:13:34.349Z,77.05
2018-04-17T01:16:00.043Z,77.12
2018-04-17T01:18:25.722Z,77.24
2018-04-17T01:20:51.421Z,77.31
2018-04-17T01:23:17.123Z,77.42
2018-04-17T01:25:42.795Z,77.59
2018-04-17T01:28:08.475Z,77.85
2018-04-17T01:30:34.172Z,77.68
2018-04-17T01:33:00.097Z,77.74
2018-04-17T01:35:25.799Z,77.75
2018-04-17T01:37:51.779Z,78.06
2018-04-17T01:40:17.637Z,78.37
2018-04-17T01:42:43.296Z,78.35
2018-04-17T01:45:09.007Z,78.63
2018-04-17T01:47:34.804Z,78.52
2018-04-17T01:50:00.459Z,78.60
2018-04-17T01:52:26.129Z,78.54
2018-04-17T01:54:51.795Z,78.47
2018-04-17T01:57:17.650Z,78.37
2018-04-17T01:59:43.306Z,78.46
2018-04-17T02:02:09.021Z,78.59
2018-04-17T02:04:34.712Z,78.55
2018-04-17T02:07:00.354Z,78.79
2018-04-17T02:09:26.044Z,78.62
2018-04-17T02:11:51.952Z,78.47
2018-04-17T02:14:17.607Z,78.77
2018-04-17T02:16:43.285Z,78.93
2018-04-17T02:19:08.972Z,79.14
2018-04-17T02:21:34.670Z,79.09
2018-04-17T02:24:00.344Z,79.14
2018-04-17T02:26:26.036Z,79.29
2018-04-17T02:28:51.694Z,79.17
2018-04-17T02:31:17.392Z,79.24
2018-04-17T02:33:43.060Z,79.38
2018-04-17T02:36:08.726Z,79.34
2018-04-17T02:38:34.431Z,79.46
2018-04-17T02:41:00.107Z,79.41
2018-04-17T02:43:25.870Z,79.36
2018-04-17T02:45:51.568Z,79.40
2018-04-17T02:48:17.228Z,79.57
2018-04-17T02:50:42.954Z,79.68
2018-04-17T02:53:08.616Z,79.70
2018-04-17T02:55:34.291Z,79.63
2018-04-17T02:57:59.963Z,79.68
2018-04-17T03:00:25.635Z,79.65
2018-04-17T03:02:51.325Z,79.56
2018-04-17T03:05:17.052Z,79.61
2018-04-17T03:07:42.740Z,79.71
2018-04-17T03:10:08.437Z,79.80
2018-04-17T03:12:34.152Z,79.95
2018-04-17T03:14:59.839Z,79.96
2018-04-17T03:17:25.523Z,79.67
2018-04-17T03:19:51.202Z,79.28
2018-04-17T03:22:16.906Z,79.80
2018-04-17T03:24:42.614Z,79.87
2018-04-17T03:27:08.297Z,80.02
2018-04-17T03:29:33.970Z,80.03
2018-04-17T03:31:59.715Z,80.15
2018-04-17T03:34:25.659Z,80.12
2018-04-17T03:36:51.335Z,79.96
2018-04-17T03:39:17.032Z,79.93
2018-04-17T03:41:42.751Z,79.92
2018-04-17T03:44:08.438Z,80.31
2018-04-17T03:46:34.104Z,80.36
2018-04-17T03:48:59.777Z,80.23
2018-04-17T03:51:25.471Z,80.56
2018-04-17T03:53:51.153Z,80.19
2018-04-17T03:56:17.670Z,80.15
2018-04-17T03:58:43.349Z,80.51
2018-04-17T04:01:09.039Z,80.62
2018-04-17T04:03:34.731Z,80.44
2018-04-17T04:06:00.443Z,80.41
2018-04-17T04:08:26.115Z,80.62
2018-04-17T04:10:51.780Z,80.74
2018-04-17T04:13:17.503Z,80.79
2018-04-17T04:15:43.170Z,80.32
2018-04-17T04:18:14.863Z,80.42
2018-04-17T04:20:46.645Z,80.70
2018-04-17T04:23:18.379Z,80.42
2018-04-17T04:28:43.137Z,80.55
2018-04-17T04:31:08.823Z,80.64
2018-04-17T04:33:34.810Z,81.02
2018-04-17T04:36:00.486Z,80.84
2018-04-17T04:38:26.166Z,80.89
2018-04-17T04:40:51.818Z,80.76
2018-04-17T04:43:17.502Z,80.65
2018-04-17T04:45:43.158Z,80.41
2018-04-17T04:48:08.999Z,80.30
2018-04-17T04:50:34.682Z,80.41
2018-04-17T04:53:00.360Z,80.26
2018-04-17T04:55:26.128Z,80.08
2018-04-17T04:57:51.821Z,79.93
2018-04-17T05:00:17.487Z,79.71
2018-04-17T05:02:43.163Z,79.71
2018-04-17T05:05:08.814Z,79.66
2018-04-17T05:07:34.500Z,79.63
2018-04-17T05:10:00.176Z,79.62
2018-04-17T05:12:25.866Z,79.37
2018-04-17T05:14:51.603Z,79.12
2018-04-17T05:17:17.291Z,78.96
2018-04-17T05:19:43.013Z,78.72
2018-04-17T05:22:08.725Z,78.55
2018-04-17T05:24:34.426Z,78.52
2018-04-17T05:27:00.122Z,78.39
2018-04-17T05:29:25.815Z,78.17
2018-04-17T05:31:51.490Z,78.15
2018-04-17T05:34:17.227Z,77.93
2018-04-17T05:36:42.882Z,77.80
2018-04-17T05:39:08.572Z,77.73
2018-04-17T05:41:34.227Z,77.38
2018-04-17T05:43:59.922Z,77.46
2018-04-17T05:46:25.575Z,77.46
2018-04-17T05:48:51.267Z,77.26
2018-04-17T05:51:16.962Z,77.12
2018-04-17T05:53:42.707Z,77.23
2018-04-17T05:56:08.357Z,77.25
2018-04-17T05:58:34.052Z,77.12
2018-04-17T06:00:59.726Z,76.99
2018-04-17T06:03:25.436Z,76.81
2018-04-17T06:05:51.151Z,76.48
2018-04-17T06:08:16.818Z,76.44
2018-04-17T06:10:42.500Z,76.42
2018-04-17T06:13:08.206Z,76.14
2018-04-17T06:15:33.861Z,76.05
2018-04-17T06:17:59.643Z,75.99
2018-04-17T06:20:25.324Z,75.89
2018-04-17T06:22:51.027Z,75.57
2018-04-17T06:25:16.713Z,75.37
2018-04-17T06:27:42.366Z,75.00
2018-04-17T06:30:08.039Z,74.75
2018-04-17T06:32:33.700Z,74.34
2018-04-17T06:34:59.385Z,74.24
2018-04-17T06:37:25.055Z,74.09
2018-04-17T06:39:50.751Z,73.95
2018-04-17T06:42:16.419Z,73.25
2018-04-17T06:44:42.139Z,73.04
2018-04-17T06:47:07.808Z,72.90
2018-04-17T06:49:33.491Z,72.83
2018-04-17T06:51:59.224Z,72.38
2018-04-17T06:54:24.912Z,71.97
2018-04-17T06:56:50.586Z,71.68
2018-04-17T06:59:16.248Z,71.68
2018-04-17T07:01:41.913Z,71.32
2018-04-17T07:04:07.611Z,71.16
2018-04-17T07:06:33.587Z,70.87
2018-04-17T07:08:59.270Z,70.05
2018-04-17T07:11:24.941Z,69.82
2018-04-17T07:13:50.618Z,69.12
2018-04-17T07:16:16.280Z,68.89
2018-04-17T07:18:41.960Z,68.62
2018-04-17T07:21:07.690Z,68.14
2018-04-17T07:23:33.343Z,67.51
2018-04-17T07:25:59.035Z,67.49
2018-04-17T07:28:24.722Z,67.16
2018-04-17T07:30:50.434Z,66.11
2018-04-17T07:33:16.102Z,65.92
2018-04-17T07:35:41.905Z,65.07
2018-04-17T07:38:07.623Z,64.78
2018-04-17T07:40:33.346Z,63.64
2018-04-17T07:43:01.820Z,62.50
2018-04-17T07:45:27.515Z,62.47
2018-04-17T07:47:59.230Z,61.38
2018-04-17T07:50:24.924Z,61.28
2018-04-17T07:52:50.610Z,60.61
2018-04-17T07:55:16.342Z,60.15
2018-04-17T07:57:42.011Z,60.40
2018-04-17T08:00:07.971Z,59.82
2018-04-17T08:02:33.664Z,59.84
2018-04-17T08:04:59.343Z,59.70
2018-04-17T08:07:25.004Z,59.02
2018-04-17T08:09:50.683Z,56.98
2018-04-17T08:12:16.350Z,55.87
2018-04-17T08:14:42.027Z,56.42
2018-04-17T08:17:07.682Z,56.96
2018-04-17T08:19:33.369Z,54.80
2018-04-17T08:21:59.046Z,54.99
2018-04-17T08:24:24.733Z,55.02
2018-04-17T08:26:50.590Z,53.83
2018-04-17T08:29:16.259Z,54.15
2018-04-17T08:31:41.938Z,53.65
2018-04-17T08:34:07.606Z,53.47
2018-04-17T08:36:33.293Z,53.83
2018-04-17T08:38:58.946Z,53.13
2018-04-17T08:41:24.618Z,53.71
2018-04-17T08:43:50.274Z,54.01
2018-04-17T08:46:15.971Z,53.76
2018-04-17T08:48:41.676Z,53.17
2018-04-17T08:51:07.402Z,53.11
2018-04-17T08:53:33.136Z,52.83
2018-04-17T08:55:58.840Z,52.74
2018-04-17T08:58:24.516Z,51.60
2018-04-17T09:00:50.237Z,52.15
2018-04-17T09:03:15.896Z,52.20
2018-04-17T09:05:41.591Z,51.77
2018-04-17T09:08:07.265Z,51.23
2018-04-17T09:10:32.943Z,51.51
2018-04-17T09:12:58.625Z,50.50
2018-04-17T09:15:24.290Z,50.61
2018-04-17T09:17:49.952Z,51.13
2018-04-17T09:20:15.626Z,50.84
2018-04-17T09:22:41.323Z,50.85
2018-04-17T09:25:06.999Z,49.27
2018-04-17T09:27:32.731Z,48.82
2018-04-17T09:29:58.402Z,49.13
2018-04-17T09:32:24.090Z,49.84
2018-04-17T09:34:49.766Z,48.07
2018-04-17T09:37:15.457Z,48.22
2018-04-17T09:39:41.123Z,48.43
2018-04-17T09:42:06.824Z,47.84
2018-04-17T09:44:32.516Z,48.24
2018-04-17T09:46:58.195Z,48.27
2018-04-17T09:49:23.863Z,47.77
2018-04-17T09:51:49.587Z,46.68
2018-04-17T09:54:15.307Z,46.56
2018-04-17T09:56:41.008Z,46.02
2018-04-17T09:59:06.719Z,46.30
2018-04-17T10:01:32.401Z,46.58
2018-04-17T10:03:58.059Z,46.60
2018-04-17T10:06:23.746Z,46.72
2018-04-17T10:08:49.487Z,47.15
2018-04-17T10:11:15.135Z,45.15
2018-04-17T10:13:40.795Z,45.04
2018-04-17T10:16:06.495Z,45.34
2018-04-17T10:18:32.166Z,45.35
2018-04-17T10:20:57.835Z,45.79
2018-04-17T10:23:23.507Z,45.98
2018-04-17T10:25:49.175Z,45.56
2018-04-17T10:28:15.490Z,45.86
2018-04-17T10:30:41.146Z,46.16
2018-04-17T10:33:06.880Z,45.71
2018-04-17T10:35:32.552Z,45.82
2018-04-17T10:37:58.233Z,44.69
2018-04-17T10:40:23.926Z,44.48
2018-04-17T10:42:49.619Z,45.16
2018-04-17T10:45:15.381Z,44.45
2018-04-17T10:47:41.083Z,44.26
2018-04-17T10:50:06.784Z,45.00
2018-04-17T10:52:32.514Z,45.63
2018-04-17T10:54:58.202Z,45.53
2018-04-17T10:57:23.888Z,44.03
2018-04-17T10:59:49.565Z,45.23
2018-04-17T11:02:15.268Z,44.21
2018-04-17T11:04:40.919Z,44.19
2018-04-17T11:07:06.588Z,43.40
2018-04-17T11:09:32.252Z,43.73
2018-04-17T11:11:57.939Z,43.86
2018-04-17T11:14:23.602Z,43.52
2018-04-17T11:16:49.270Z,43.84
2018-04-17T11:19:14.982Z,44.05
2018-04-17T11:21:40.684Z,44.17
2018-04-17T11:24:06.384Z,42.02
2018-04-17T11:26:32.063Z,42.27
2018-04-17T11:28:57.739Z,42.89
2018-04-17T11:31:23.418Z,42.93
2018-04-17T11:33:49.090Z,42.82
2018-04-17T11:36:14.768Z,43.59
2018-04-17T11:38:40.447Z,43.53
2018-04-17T11:41:06.108Z,43.37
2018-04-17T11:43:31.810Z,42.81
2018-04-17T11:45:57.523Z,42.46
2018-04-17T11:48:23.223Z,42.33
2018-04-17T11:50:49.249Z,42.47
2018-04-17T11:53:14.959Z,42.72
2018-04-17T11:55:40.667Z,42.00
2018-04-17T11:58:06.362Z,42.50
2018-04-17T12:00:32.025Z,42.91
2018-04-17T12:02:57.743Z,42.76
2018-04-17T12:05:23.430Z,42.60
2018-04-17T12:07:49.123Z,41.75
2018-04-17T12:10:14.794Z,41.43
2018-04-17T12:12:40.481Z,41.98
2018-04-17T12:15:06.172Z,40.29
2018-04-17T12:17:31.828Z,40.59
2018-04-17T12:19:57.521Z,40.87
2018-04-17T12:22:23.176Z,41.14
2018-04-17T12:24:49.224Z,40.91
2018-04-17T12:27:14.900Z,40.89
2018-04-17T12:29:40.558Z,39.32
2018-04-17T12:32:06.239Z,38.73
2018-04-17T12:34:31.927Z,39.25
2018-04-17T12:36:57.618Z,40.01
2018-04-17T12:39:23.274Z,41.19
2018-04-17T12:41:48.939Z,40.66
2018-04-17T12:47:10.228Z,40.81
2018-04-17T12:49:35.999Z,40.95
2018-04-17T12:52:01.667Z,40.68
2018-04-17T12:54:27.359Z,40.83
2018-04-17T12:56:53.070Z,41.07
2018-04-17T12:59:18.771Z,41.40
2018-04-17T13:01:44.436Z,40.70
2018-04-17T13:04:10.250Z,40.44
2018-04-17T13:06:35.946Z,40.14
2018-04-17T13:09:01.609Z,39.94
2018-04-17T13:11:27.290Z,40.30
2018-04-17T13:13:52.951Z,40.92
2018-04-17T13:16:18.716Z,40.81
2018-04-17T13:18:44.380Z,40.80
2018-04-17T13:21:10.117Z,40.10
2018-04-17T13:23:36.182Z,38.98
2018-04-17T13:26:01.862Z,39.31
2018-04-17T13:28:27.517Z,39.92
2018-04-17T13:30:53.199Z,40.15
2018-04-17T13:33:18.909Z,40.34
2018-04-17T13:35:44.579Z,40.58
2018-04-17T13:38:10.256Z,40.68
2018-04-17T13:40:35.958Z,41.37
2018-04-17T13:43:01.627Z,41.27
2018-04-17T13:45:27.307Z,40.04
2018-04-17T13:47:52.979Z,38.76
2018-04-17T13:50:18.653Z,39.25
2018-04-17T13:52:44.311Z,38.75
2018-04-17T13:55:10.053Z,38.88
2018-04-17T13:57:35.715Z,39.16
2018-04-17T14:00:01.404Z,38.85
2018-04-17T14:02:27.113Z,38.83
2018-04-17T14:04:52.741Z,38.67
2018-04-17T14:07:18.429Z,38.63
2018-04-17T14:09:44.091Z,39.22
2018-04-17T14:12:09.804Z,39.28
2018-04-17T14:14:35.525Z,38.74
2018-04-17T14:17:01.200Z,39.40
2018-04-17T14:19:26.899Z,39.53
2018-04-17T14:21:52.594Z,39.76
2018-04-17T14:24:18.269Z,39.52
2018-04-17T14:26:43.962Z,39.85
2018-04-17T14:29:09.630Z,40.01
2018-04-17T14:31:35.334Z,40.03
2018-04-17T14:34:01.011Z,40.19
2018-04-17T14:36:26.731Z,39.93
2018-04-17T14:38:52.391Z,40.18
2018-04-17T14:41:18.081Z,39.57
2018-04-17T14:43:43.804Z,39.36
2018-04-17T14:46:09.444Z,39.57
2018-04-17T14:48:35.188Z,40.02
2018-04-17T14:51:00.866Z,40.02
2018-04-17T14:53:26.582Z,40.22
2018-04-17T14:55:52.291Z,40.36
2018-04-17T14:58:18.008Z,40.46
2018-04-17T15:00:43.727Z,40.50
2018-04-17T15:03:09.408Z,40.66
2018-04-17T15:05:35.123Z,40.59
2018-04-17T15:08:00.808Z,40.25
2018-04-17T15:10:26.679Z,40.47
2018-04-17T15:12:52.401Z,40.39
2018-04-17T15:15:18.200Z,40.96
2018-04-17T15:17:43.835Z,41.09
2018-04-17T15:20:09.532Z,41.32
2018-04-17T15:22:35.279Z,41.16
2018-04-17T15:25:00.964Z,40.81
2018-04-17T15:27:26.649Z,41.00
2018-04-17T15:29:52.349Z,41.13
2018-04-17T15:32:18.031Z,41.39
2018-04-17T15:34:43.695Z,41.78
2018-04-17T15:37:09.656Z,41.68
2018-04-17T15:39:35.331Z,41.33
2018-04-17T15:42:01.024Z,41.42
2018-04-17T15:44:26.724Z,41.51
2018-04-17T15:46:52.387Z,41.62
2018-04-17T15:49:18.067Z,41.10
2018-04-17T15:51:43.826Z,41.41
2018-04-17T15:54:09.507Z,41.97
2018-04-17T15:56:35.167Z,42.38
2018-04-17T15:59:00.855Z,42.10
2018-04-17T16:01:26.516Z,42.08
2018-04-17T16:03:52.167Z,42.16
2018-04-17T16:06:17.979Z,41.82
2018-04-17T16:08:43.639Z,41.88
2018-04-17T16:11:09.309Z,42.04
2018-04-17T16:13:34.974Z,42.22
2018-04-17T16:16:00.654Z,42.48
2018-04-17T16:18:26.345Z,42.86
2018-04-17T16:20:52.004Z,43.32
2018-04-17T16:23:17.987Z,43.70
2018-04-17T16:25:43.679Z,43.67
2018-04-17T16:28:09.535Z,43.86
2018-04-17T16:30:35.250Z,44.02
2018-04-17T16:33:00.954Z,44.09
2018-04-17T16:35:26.641Z,44.22
2018-04-17T16:37:52.306Z,44.21
2018-04-17T16:40:17.997Z,44.19
2018-04-17T16:42:43.695Z,44.24
2018-04-17T16:45:09.416Z,44.50
2018-04-17T16:47:35.124Z,43.92
2018-04-17T16:50:00.814Z,43.74
2018-04-17T16:52:26.516Z,43.44
2018-04-17T16:54:52.207Z,43.45
2018-04-17T16:57:17.885Z,43.11
2018-04-17T16:59:43.597Z,43.07
2018-04-17T17:02:09.263Z,43.01
2018-04-17T17:04:34.947Z,42.90
2018-04-17T17:07:00.649Z,43.13
2018-04-17T17:09:26.331Z,42.89
2018-04-17T17:11:52.029Z,43.20
2018-04-17T17:14:17.707Z,43.63
2018-04-17T17:16:43.431Z,44.04
2018-04-17T17:19:09.150Z,44.48
2018-04-17T17:21:34.898Z,44.60
2018-04-17T17:24:00.593Z,44.81
2018-04-17T17:26:26.289Z,44.94
2018-04-17T17:28:52.047Z,45.35
2018-04-17T17:31:17.958Z,45.57
2018-04-17T17:33:43.635Z,45.85
2018-04-17T17:36:09.328Z,46.10
2018-04-17T17:38:35.015Z,46.46
2018-04-17T17:41:00.699Z,46.99
2018-04-17T17:43:26.392Z,47.35
2018-04-17T17:45:52.086Z,47.92
2018-04-17T17:48:17.750Z,48.05
2018-04-17T17:50:43.692Z,48.19
2018-04-17T17:53:09.361Z,48.46
2018-04-17T17:55:35.036Z,49.11
2018-04-17T17:58:00.733Z,49.98
2018-04-17T18:00:26.455Z,50.67
2018-04-17T18:02:52.123Z,51.23
2018-04-17T18:05:17.795Z,51.50
2018-04-17T18:07:43.630Z,51.41
2018-04-17T18:10:09.299Z,51.07
2018-04-17T18:12:35.017Z,51.24
2018-04-17T18:15:00.683Z,51.81
2018-04-17T18:17:26.372Z,52.03
2018-04-17T18:19:52.058Z,52.23
2018-04-17T18:22:17.770Z,52.85
2018-04-17T18:24:43.564Z,53.00
2018-04-17T18:27:09.248Z,53.40
2018-04-17T18:29:34.914Z,54.07
2018-04-17T18:32:00.618Z,54.52
2018-04-17T18:34:26.287Z,54.72
2018-04-17T18:36:51.996Z,54.84
2018-04-17T18:39:17.671Z,55.20
2018-04-17T18:41:43.387Z,55.05
2018-04-17T18:44:09.071Z,55.10
2018-04-17T18:46:34.731Z,55.13
2018-04-17T18:49:00.410Z,55.20
2018-04-17T18:51:26.822Z,55.23
2018-04-17T18:53:52.518Z,55.32
2018-04-17T18:56:18.199Z,55.46
2018-04-17T18:58:43.919Z,55.63
2018-04-17T19:01:09.637Z,55.69
2018-04-17T19:03:35.303Z,55.90
2018-04-17T19:06:00.998Z,55.97
2018-04-17T19:08:26.664Z,56.27
2018-04-17T19:10:52.575Z,56.47
2018-04-17T19:13:18.275Z,56.61
2018-04-17T19:15:43.955Z,56.84
2018-04-17T19:18:09.620Z,57.31
2018-04-17T19:20:35.317Z,57.59
2018-04-17T19:23:01.039Z,57.64
2018-04-17T19:25:26.725Z,57.62
2018-04-17T19:27:52.467Z,57.75
2018-04-17T19:30:18.142Z,58.10
2018-04-17T19:32:43.872Z,58.41
2018-04-17T19:35:09.543Z,58.98
2018-04-17T19:37:35.239Z,59.05
2018-04-17T19:40:00.914Z,58.89
2018-04-17T19:42:26.867Z,58.98
2018-04-17T19:44:52.524Z,59.23
2018-04-17T19:47:18.199Z,59.55
2018-04-17T19:49:43.885Z,59.61
2018-04-17T19:52:09.566Z,59.63
2018-04-17T19:54:35.244Z,59.66
2018-04-17T19:57:00.987Z,59.84
2018-04-17T19:59:26.666Z,59.94
2018-04-17T20:01:52.383Z,60.11
2018-04-17T20:04:18.055Z,60.23
2018-04-17T20:06:43.801Z,60.47
2018-04-17T20:09:09.475Z,60.50
2018-04-17T20:11:35.163Z,60.51
2018-04-17T20:14:00.840Z,60.64
2018-04-17T20:16:26.530Z,60.96
2018-04-17T20:18:52.235Z,61.19
2018-04-17T20:21:18.025Z,61.53
2018-04-17T20:23:43.713Z,61.90
2018-04-17T20:26:09.443Z,62.10
2018-04-17T20:28:35.143Z,62.30
2018-04-17T20:31:00.819Z,62.37
2018-04-17T20:33:26.509Z,62.33
2018-04-17T20:35:52.183Z,62.44
2018-04-17T20:38:17.874Z,62.63
2018-04-17T20:40:43.548Z,62.65
2018-04-17T20:43:09.240Z,62.70
2018-04-17T20:45:34.915Z,62.58
2018-04-17T20:48:00.706Z,62.57
2018-04-17T20:50:26.389Z,62.54
2018-04-17T20:52:52.208Z,62.51
2018-04-17T20:55:17.882Z,62.39
2018-04-17T20:57:43.578Z,62.33
2018-04-17T21:00:09.303Z,62.58
2018-04-17T21:02:35.019Z,62.49
2018-04-17T21:05:00.671Z,62.64
2018-04-17T21:07:26.383Z,62.82
2018-04-17T21:09:52.059Z,62.77
2018-04-17T21:12:17.762Z,62.81
2018-04-17T21:14:43.420Z,62.63
2018-04-17T21:17:09.147Z,62.60
2018-04-17T21:19:34.833Z,62.56
2018-04-17T21:22:00.649Z,62.65
2018-04-17T21:24:26.327Z,62.56
2018-04-17T21:26:52.027Z,62.68
2018-04-17T21:29:17.702Z,62.75
2018-04-17T21:31:43.411Z,62.89
2018-04-17T21:34:09.105Z,63.12
2018-04-17T21:36:34.795Z,63.09
2018-04-17T21:39:00.466Z,63.08
2018-04-17T21:41:26.252Z,63.12
2018-04-17T21:43:51.929Z,63.15
2018-04-17T21:46:17.892Z,63.15
2018-04-17T21:48:43.564Z,63.33
2018-04-17T21:51:09.232Z,63.41
2018-04-17T21:53:34.960Z,63.43
2018-04-17T21:56:00.644Z,63.54
2018-04-17T21:58:26.363Z,63.49
2018-04-17T22:00:52.023Z,63.43
2018-04-17T22:03:17.712Z,63.35
2018-04-17T22:05:43.368Z,63.35
2018-04-17T22:08:09.054Z,63.23
2018-04-17T22:10:34.739Z,63.20
2018-04-17T22:13:00.424Z,63.21
2018-04-17T22:15:26.108Z,63.43
2018-04-17T22:17:51.810Z,63.31
2018-04-17T22:20:17.483Z,63.20
2018-04-17T22:22:43.164Z,63.13
2018-04-17T22:25:08.854Z,63.00
2018-04-17T22:27:34.606Z,63.05
2018-04-17T22:30:00.284Z,63.03
2018-04-17T22:32:25.943Z,63.03
2018-04-17T22:34:51.638Z,63.10
2018-04-17T22:37:17.331Z,63.06
2018-04-17T22:39:43.030Z,63.04
2018-04-17T22:42:08.708Z,63.01
2018-04-17T22:44:34.399Z,63.16
2018-04-17T22:47:00.080Z,63.16
2018-04-17T22:49:25.779Z,63.22
2018-04-17T22:51:51.467Z,63.20
2018-04-17T22:54:17.166Z,63.36
2018-04-17T22:56:42.852Z,63.26
2018-04-17T22:59:08.562Z,63.03
2018-04-17T23:01:34.223Z,63.01
2018-04-17T23:03:59.930Z,63.11
2018-04-17T23:06:25.602Z,63.09
2018-04-17T23:08:51.280Z,63.06
2018-04-17T23:11:16.951Z,62.91
2018-04-17T23:13:42.608Z,62.78
2018-04-17T23:16:08.290Z,62.68
2018-04-17T23:18:33.962Z,62.64
2018-04-17T23:20:59.657Z,62.65
2018-04-17T23:23:25.344Z,62.68
2018-04-17T23:25:51.002Z,62.81
2018-04-17T23:28:16.690Z,62.83
2018-04-17T23:30:42.347Z,62.88
2018-04-17T23:33:08.035Z,62.92
2018-04-17T23:35:33.691Z,63.00
2018-04-17T23:37:59.354Z,63.06
2018-04-17T23:40:25.072Z,63.14
2018-04-17T23:42:50.751Z,63.17
2018-04-17T23:45:16.630Z,63.29
2018-04-17T23:47:42.296Z,63.34
2018-04-17T23:50:08.305Z,63.38
2018-04-17T23:52:33.971Z,63.48
2018-04-17T23:54:59.681Z,63.67
2018-04-17T23:57:25.338Z,63.76
2018-04-17T23:59:51.016Z,63.89
